createdAt,value
2024-05-09T00:00:39.947Z,13.92
2024-05-09T00:01:30.380Z,14.01
2024-05-09T00:02:20.050Z,14.01
2024-05-09T00:03:11.347Z,14.00
2024-05-09T00:04:01.557Z,14.00
2024-05-09T00:04:51.393Z,13.98
2024-05-09T00:05:42.530Z,13.91
2024-05-09T00:06:32.233Z,13.88
2024-05-09T00:07:21.867Z,13.90
2024-05-09T00:08:11.852Z,13.78
2024-05-09T00:09:01.554Z,13.84
2024-05-09T00:09:51.276Z,13.77
2024-05-09T00:10:41.425Z,13.65
2024-05-09T00:11:31.142Z,13.65
2024-05-09T00:12:21.236Z,13.66
2024-05-09T00:13:11.296Z,13.70
2024-05-09T00:14:01.418Z,13.73
2024-05-09T00:14:50.918Z,13.72
2024-05-09T00:15:40.242Z,13.75
2024-05-09T00:16:29.595Z,13.82
2024-05-09T00:17:19.440Z,13.78
2024-05-09T00:18:09.443Z,13.82
2024-05-09T00:18:59.013Z,13.84
2024-05-09T00:19:48.697Z,13.79
2024-05-09T00:20:40.721Z,13.80
2024-05-09T00:21:30.717Z,13.72
2024-05-09T00:22:20.210Z,13.70
2024-05-09T00:23:09.824Z,13.68
2024-05-09T00:23:59.239Z,13.76
2024-05-09T00:24:48.906Z,13.82
2024-05-09T00:25:38.604Z,13.85
2024-05-09T00:26:28.295Z,13.81
2024-05-09T00:27:17.645Z,13.90
2024-05-09T00:28:07.427Z,13.83
2024-05-09T00:28:56.989Z,13.80
2024-05-09T00:29:46.559Z,13.65
2024-05-09T00:30:37.192Z,13.67
2024-05-09T00:31:27.116Z,13.70
2024-05-09T00:32:16.419Z,13.70
2024-05-09T00:33:07.786Z,13.78
2024-05-09T00:33:58.699Z,13.59
2024-05-09T00:34:48.521Z,13.53
2024-05-09T00:35:38.284Z,13.62
2024-05-09T00:36:27.999Z,13.57
2024-05-09T00:37:17.389Z,13.55
2024-05-09T00:38:07.152Z,13.65
2024-05-09T00:38:56.408Z,13.60
2024-05-09T00:39:46.125Z,13.61
2024-05-09T00:40:40.907Z,13.79
2024-05-09T00:41:32.240Z,13.69
2024-05-09T00:42:22.016Z,13.62
2024-05-09T00:43:12.679Z,13.58
2024-05-09T00:44:03.507Z,13.59
2024-05-09T00:44:52.819Z,13.63
2024-05-09T00:45:42.264Z,13.68
2024-05-09T00:46:32.268Z,13.65
2024-05-09T00:47:23.022Z,13.63
2024-05-09T00:48:16.232Z,13.64
2024-05-09T00:49:08.576Z,13.66
2024-05-09T00:49:59.069Z,13.70
2024-05-09T00:50:48.969Z,13.73
2024-05-09T00:51:41.326Z,13.67
2024-05-09T00:52:31.659Z,13.67
2024-05-09T00:53:21.469Z,13.64
2024-05-09T00:54:11.108Z,13.53
2024-05-09T00:55:00.702Z,13.48
2024-05-09T00:55:51.808Z,13.50
2024-05-09T00:56:41.292Z,13.46
2024-05-09T00:57:31.561Z,13.48
2024-05-09T00:58:22.948Z,13.51
2024-05-09T00:59:12.597Z,13.58
2024-05-09T01:00:02.279Z,13.59
2024-05-09T01:00:52.373Z,13.56
2024-05-09T01:01:42.511Z,13.55
2024-05-09T01:02:32.258Z,13.53
2024-05-09T01:03:22.582Z,13.53
2024-05-09T01:04:12.919Z,13.45
2024-05-09T01:05:02.897Z,13.51
2024-05-09T01:05:52.619Z,13.51
2024-05-09T01:06:42.374Z,13.50
2024-05-09T01:07:31.749Z,13.52
2024-05-09T01:08:21.684Z,13.55
2024-05-09T01:09:11.126Z,13.53
2024-05-09T01:10:00.873Z,13.39
2024-05-09T01:10:50.802Z,13.37
2024-05-09T01:11:40.688Z,13.37
2024-05-09T01:12:30.548Z,13.42
2024-05-09T01:13:20.207Z,13.47
2024-05-09T01:14:10.068Z,13.39
2024-05-09T01:14:59.584Z,13.37
2024-05-09T01:15:51.772Z,13.38
2024-05-09T01:16:41.404Z,13.30
2024-05-09T01:17:31.959Z,13.26
2024-05-09T01:18:21.683Z,13.34
2024-05-09T01:19:19.378Z,13.24
2024-05-09T01:20:12.887Z,13.30
2024-05-09T01:21:08.311Z,13.27
2024-05-09T01:21:57.587Z,13.18
2024-05-09T01:22:47.332Z,13.12
2024-05-09T01:23:37.064Z,13.30
2024-05-09T01:24:26.191Z,13.20
2024-05-09T01:25:15.711Z,13.19
2024-05-09T01:26:05.164Z,13.21
2024-05-09T01:26:54.505Z,13.25
2024-05-09T01:27:43.966Z,13.15
2024-05-09T01:28:33.337Z,13.17
2024-05-09T01:29:23.145Z,13.25
2024-05-09T01:30:17.377Z,13.25
2024-05-09T01:31:14.862Z,13.35
2024-05-09T01:32:04.863Z,13.25
2024-05-09T01:32:54.586Z,13.24
2024-05-09T01:33:44.307Z,13.23
2024-05-09T01:34:33.889Z,13.09
2024-05-09T01:35:23.194Z,13.13
2024-05-09T01:36:12.669Z,13.10
2024-05-09T01:37:02.544Z,13.01
2024-05-09T01:37:52.340Z,13.16
2024-05-09T01:38:42.062Z,13.16
2024-05-09T01:39:31.692Z,13.09
2024-05-09T01:40:28.562Z,13.06
2024-05-09T01:41:23.602Z,13.05
2024-05-09T01:42:15.330Z,13.04
2024-05-09T01:43:05.370Z,13.02
2024-05-09T01:43:54.713Z,12.95
2024-05-09T01:44:45.683Z,13.00
2024-05-09T01:45:34.899Z,12.96
2024-05-09T01:46:24.309Z,13.02
2024-05-09T01:47:13.871Z,13.02
2024-05-09T01:48:04.549Z,13.01
2024-05-09T01:48:54.505Z,13.06
2024-05-09T01:49:44.297Z,12.94
2024-05-09T01:50:38.961Z,12.89
2024-05-09T01:51:31.368Z,12.85
2024-05-09T01:52:20.862Z,12.83
2024-05-09T01:53:13.259Z,12.86
2024-05-09T01:54:03.191Z,12.84
2024-05-09T01:54:52.525Z,12.72
2024-05-09T01:55:42.851Z,12.78
2024-05-09T01:56:32.527Z,12.72
2024-05-09T01:57:22.260Z,12.76
2024-05-09T01:58:12.181Z,12.81
2024-05-09T01:59:01.432Z,12.73
2024-05-09T01:59:51.011Z,12.65
2024-05-09T02:00:42.596Z,12.69
2024-05-09T02:01:55.440Z,12.65
2024-05-09T02:02:45.167Z,12.77
2024-05-09T02:03:34.883Z,12.77
2024-05-09T02:04:24.419Z,12.66
2024-05-09T02:05:14.386Z,12.68
2024-05-09T02:06:04.145Z,12.64
2024-05-09T02:06:53.498Z,12.63
2024-05-09T02:07:43.122Z,12.59
2024-05-09T02:08:33.113Z,12.55
2024-05-09T02:09:22.505Z,12.57
2024-05-09T02:10:20.075Z,12.54
2024-05-09T02:11:13.004Z,12.60
2024-05-09T02:12:02.755Z,12.59
2024-05-09T02:12:52.027Z,12.53
2024-05-09T02:13:41.667Z,12.62
2024-05-09T02:14:31.520Z,12.54
2024-05-09T02:15:21.200Z,12.45
2024-05-09T02:16:13.578Z,12.47
2024-05-09T02:17:03.361Z,12.52
2024-05-09T02:17:53.108Z,12.53
2024-05-09T02:18:43.120Z,12.56
2024-05-09T02:19:33.061Z,12.60
2024-05-09T02:20:30.319Z,12.54
2024-05-09T02:21:25.420Z,12.59
2024-05-09T02:22:14.764Z,12.63
2024-05-09T02:23:05.468Z,12.55
2024-05-09T02:23:55.243Z,12.50
2024-05-09T02:24:44.684Z,12.52
2024-05-09T02:25:34.155Z,12.41
2024-05-09T02:26:23.631Z,12.51
2024-05-09T02:27:13.183Z,12.54
2024-05-09T02:28:02.924Z,12.45
2024-05-09T02:28:52.711Z,12.39
2024-05-09T02:29:44.032Z,12.33
2024-05-09T02:30:39.119Z,12.36
2024-05-09T02:31:31.152Z,12.29
2024-05-09T02:32:20.730Z,12.31
2024-05-09T02:33:11.670Z,12.37
2024-05-09T02:34:03.515Z,12.29
2024-05-09T02:34:53.164Z,12.21
2024-05-09T02:35:43.737Z,12.21
2024-05-09T02:36:33.719Z,12.21
2024-05-09T02:37:23.264Z,12.26
2024-05-09T02:38:12.933Z,12.25
2024-05-09T02:39:02.841Z,12.29
2024-05-09T02:39:52.423Z,12.27
2024-05-09T02:40:41.784Z,12.30
2024-05-09T02:41:31.286Z,12.32
2024-05-09T02:42:20.865Z,12.23
2024-05-09T02:43:11.792Z,12.20
2024-05-09T02:44:01.971Z,12.29
2024-05-09T02:44:51.368Z,12.29
2024-05-09T02:45:40.915Z,12.29
2024-05-09T02:46:30.380Z,12.22
2024-05-09T02:47:20.189Z,12.22
2024-05-09T02:48:11.189Z,12.27
2024-05-09T02:49:01.404Z,12.25
2024-05-09T02:49:51.017Z,12.25
2024-05-09T02:50:41.006Z,12.21
2024-05-09T02:51:30.992Z,12.32
2024-05-09T02:52:20.198Z,12.23
2024-05-09T02:53:12.812Z,12.30
2024-05-09T02:54:02.747Z,12.33
2024-05-09T02:54:52.434Z,12.22
2024-05-09T02:55:42.785Z,12.23
2024-05-09T02:56:32.812Z,12.21
2024-05-09T02:57:22.062Z,12.16
2024-05-09T02:58:11.838Z,12.13
2024-05-09T02:59:01.459Z,12.16
2024-05-09T02:59:50.934Z,12.13
2024-05-09T03:00:42.428Z,12.18
2024-05-09T03:01:32.514Z,12.21
2024-05-09T03:02:22.234Z,12.19
2024-05-09T03:03:14.021Z,12.05
2024-05-09T03:04:05.008Z,12.15
2024-05-09T03:04:54.640Z,12.06
2024-05-09T03:05:45.017Z,12.15
2024-05-09T03:06:39.485Z,12.13
2024-05-09T03:07:28.860Z,12.13
2024-05-09T03:08:18.305Z,12.14
2024-05-09T03:09:10.533Z,12.14
2024-05-09T03:10:00.295Z,12.16
2024-05-09T03:10:49.662Z,12.22
2024-05-09T03:11:39.332Z,12.13
2024-05-09T03:12:28.791Z,11.97
2024-05-09T03:13:18.620Z,12.02
2024-05-09T03:14:08.054Z,12.07
2024-05-09T03:14:57.884Z,12.21
2024-05-09T03:15:47.608Z,12.13
2024-05-09T03:16:37.944Z,12.13
2024-05-09T03:17:27.225Z,12.15
2024-05-09T03:18:16.843Z,12.14
2024-05-09T03:19:06.406Z,11.97
2024-05-09T03:19:55.970Z,11.97
2024-05-09T03:20:45.718Z,12.00
2024-05-09T03:21:41.171Z,11.92
2024-05-09T03:22:30.762Z,11.98
2024-05-09T03:23:20.573Z,11.97
2024-05-09T03:24:10.136Z,12.02
2024-05-09T03:24:59.470Z,12.06
2024-05-09T03:25:49.011Z,12.09
2024-05-09T03:26:40.302Z,12.12
2024-05-09T03:27:29.960Z,12.01
2024-05-09T03:28:19.294Z,12.01
2024-05-09T03:29:09.228Z,12.12
2024-05-09T03:29:58.720Z,12.04
2024-05-09T03:30:48.340Z,12.01
2024-05-09T03:31:38.132Z,12.05
2024-05-09T03:32:27.788Z,11.99
2024-05-09T03:33:19.370Z,11.97
2024-05-09T03:34:10.452Z,11.96
2024-05-09T03:35:00.256Z,11.90
2024-05-09T03:35:49.917Z,11.85
2024-05-09T03:36:42.746Z,11.90
2024-05-09T03:37:32.275Z,11.99
2024-05-09T03:38:21.927Z,12.06
2024-05-09T03:39:11.520Z,11.97
2024-05-09T03:40:01.187Z,11.86
2024-05-09T03:40:51.131Z,11.81
2024-05-09T03:41:40.686Z,11.86
2024-05-09T03:42:30.251Z,11.80
2024-05-09T03:43:20.244Z,11.83
2024-05-09T03:44:09.559Z,11.83
2024-05-09T03:44:59.337Z,11.89
2024-05-09T03:45:49.386Z,11.90
2024-05-09T03:46:39.083Z,11.80
2024-05-09T03:47:29.069Z,11.84
2024-05-09T03:48:18.998Z,11.93
2024-05-09T03:49:08.542Z,11.86
2024-05-09T03:49:58.274Z,11.92
2024-05-09T03:50:47.630Z,11.96
2024-05-09T03:51:37.175Z,11.88
2024-05-09T03:52:26.897Z,11.79
2024-05-09T03:53:16.469Z,11.84
2024-05-09T03:54:05.962Z,11.76
2024-05-09T03:54:55.374Z,11.76
2024-05-09T03:55:45.150Z,11.85
2024-05-09T03:56:34.874Z,11.91
2024-05-09T03:57:24.196Z,11.97
2024-05-09T03:58:13.508Z,11.85
2024-05-09T03:59:03.293Z,11.88
2024-05-09T03:59:52.961Z,12.00
2024-05-09T04:00:42.603Z,11.86
2024-05-09T04:01:32.157Z,11.91
2024-05-09T04:02:22.019Z,11.98
2024-05-09T04:03:13.074Z,12.03
2024-05-09T04:04:02.803Z,11.99
2024-05-09T04:04:52.383Z,11.98
2024-05-09T04:05:43.691Z,11.96
2024-05-09T04:06:33.885Z,11.97
2024-05-09T04:07:23.590Z,11.99
2024-05-09T04:08:13.597Z,11.96
2024-05-09T04:09:04.097Z,11.95
2024-05-09T04:09:53.653Z,11.99
2024-05-09T04:10:42.983Z,11.96
2024-05-09T04:11:32.969Z,11.99
2024-05-09T04:12:22.421Z,11.95
2024-05-09T04:13:12.009Z,11.95
2024-05-09T04:14:01.652Z,11.98
2024-05-09T04:14:51.299Z,11.91
2024-05-09T04:15:40.621Z,11.89
2024-05-09T04:16:30.190Z,11.94
2024-05-09T04:17:19.899Z,11.97
2024-05-09T04:18:09.600Z,12.12
2024-05-09T04:18:59.087Z,12.13
2024-05-09T04:19:48.809Z,12.07
2024-05-09T04:20:40.632Z,12.04
2024-05-09T04:21:30.753Z,11.99
2024-05-09T04:22:19.956Z,12.00
2024-05-09T04:23:11.266Z,12.01
2024-05-09T04:24:00.956Z,12.04
2024-05-09T04:24:51.776Z,12.02
2024-05-09T04:25:42.857Z,12.07
2024-05-09T04:26:32.111Z,12.18
2024-05-09T04:27:21.846Z,12.16
2024-05-09T04:28:11.351Z,12.06
2024-05-09T04:29:00.597Z,12.04
2024-05-09T04:29:49.898Z,11.99
2024-05-09T04:30:41.371Z,12.12
2024-05-09T04:31:35.618Z,12.03
2024-05-09T04:32:24.926Z,12.13
2024-05-09T04:33:15.343Z,12.05
2024-05-09T04:34:05.705Z,12.09
2024-05-09T04:34:55.495Z,12.16
2024-05-09T04:35:45.619Z,12.13
2024-05-09T04:36:35.478Z,12.10
2024-05-09T04:37:25.269Z,12.07
2024-05-09T04:38:15.488Z,12.07
2024-05-09T04:39:05.416Z,12.13
2024-05-09T04:39:56.393Z,12.07
2024-05-09T04:40:46.089Z,12.18
2024-05-09T04:41:35.527Z,12.16
2024-05-09T04:42:24.782Z,12.25
2024-05-09T04:43:16.402Z,12.27
2024-05-09T04:44:05.995Z,12.31
2024-05-09T04:44:58.672Z,12.39
2024-05-09T04:45:49.653Z,12.37
2024-05-09T04:46:39.206Z,12.26
2024-05-09T04:47:28.962Z,12.29
2024-05-09T04:48:18.747Z,12.36
2024-05-09T04:49:08.539Z,12.27
2024-05-09T04:49:58.064Z,12.29
2024-05-09T04:50:47.737Z,12.32
2024-05-09T04:51:37.101Z,12.28
2024-05-09T04:52:26.407Z,12.42
2024-05-09T04:53:16.862Z,12.52
2024-05-09T04:54:08.473Z,12.33
2024-05-09T04:55:00.284Z,12.21
2024-05-09T04:55:50.125Z,12.30
2024-05-09T04:56:39.892Z,12.17
2024-05-09T04:57:29.442Z,12.09
2024-05-09T04:58:19.116Z,12.12
2024-05-09T04:59:08.477Z,12.18
2024-05-09T04:59:57.870Z,12.29
2024-05-09T05:00:47.682Z,12.32
2024-05-09T05:01:36.991Z,12.30
2024-05-09T05:02:26.526Z,12.26
2024-05-09T05:03:16.927Z,12.35
2024-05-09T05:04:06.967Z,12.35
2024-05-09T05:04:56.664Z,12.40
2024-05-09T05:05:46.676Z,12.44
2024-05-09T05:06:35.907Z,12.48
2024-05-09T05:07:25.655Z,12.59
2024-05-09T05:08:17.520Z,12.45
2024-05-09T05:09:07.898Z,12.41
2024-05-09T05:09:57.383Z,12.34
2024-05-09T05:10:47.454Z,12.37
2024-05-09T05:11:38.067Z,12.44
2024-05-09T05:12:46.212Z,12.57
2024-05-09T05:13:38.642Z,12.42
2024-05-09T05:14:29.493Z,12.33
2024-05-09T05:15:19.262Z,12.48
2024-05-09T05:16:08.768Z,12.50
2024-05-09T05:16:58.278Z,12.51
2024-05-09T05:17:48.213Z,12.37
2024-05-09T05:18:37.928Z,12.50
2024-05-09T05:19:27.815Z,12.42
2024-05-09T05:20:27.009Z,12.33
2024-05-09T05:21:21.060Z,12.47
2024-05-09T05:22:10.502Z,12.65
2024-05-09T05:23:00.244Z,12.44
2024-05-09T05:23:49.791Z,12.51
2024-05-09T05:24:39.683Z,12.47
2024-05-09T05:25:29.360Z,12.46
2024-05-09T05:26:19.333Z,12.49
2024-05-09T05:27:08.980Z,12.59
2024-05-09T05:27:58.719Z,12.55
2024-05-09T05:28:48.576Z,12.82
2024-05-09T05:29:37.872Z,12.72
2024-05-09T05:30:32.582Z,12.64
2024-05-09T05:31:23.910Z,12.57
2024-05-09T05:32:13.692Z,12.74
2024-05-09T05:33:04.594Z,12.66
2024-05-09T05:33:54.068Z,12.70
2024-05-09T05:34:43.567Z,12.74
2024-05-09T05:35:33.972Z,12.82
2024-05-09T05:36:23.614Z,12.94
2024-05-09T05:37:13.264Z,12.91
2024-05-09T05:38:05.779Z,12.86
2024-05-09T05:38:55.005Z,12.90
2024-05-09T05:39:44.758Z,13.01
2024-05-09T05:40:37.690Z,13.04
2024-05-09T05:41:28.026Z,12.96
2024-05-09T05:42:17.703Z,13.00
2024-05-09T05:43:15.839Z,12.87
2024-05-09T05:44:05.309Z,12.76
2024-05-09T05:44:54.614Z,12.99
2024-05-09T05:45:45.084Z,13.10
2024-05-09T05:46:34.891Z,13.26
2024-05-09T05:47:24.326Z,13.27
2024-05-09T05:48:15.124Z,13.39
2024-05-09T05:49:04.814Z,13.41
2024-05-09T05:49:54.431Z,13.15
2024-05-09T05:50:44.151Z,13.31
2024-05-09T05:51:33.734Z,13.28
2024-05-09T05:52:23.074Z,13.15
2024-05-09T05:53:12.494Z,13.36
2024-05-09T05:54:02.062Z,13.25
2024-05-09T05:54:51.666Z,13.16
2024-05-09T05:55:41.318Z,13.27
2024-05-09T05:56:30.952Z,13.37
2024-05-09T05:57:20.110Z,13.30
2024-05-09T05:58:10.556Z,13.32
2024-05-09T05:59:00.069Z,13.19
2024-05-09T05:59:49.295Z,13.28
2024-05-09T06:00:40.806Z,13.16
2024-05-09T06:01:30.908Z,13.18
2024-05-09T06:02:20.198Z,13.25
2024-05-09T06:03:13.297Z,13.33
2024-05-09T06:04:03.271Z,13.33
2024-05-09T06:04:53.050Z,13.40
2024-05-09T06:05:44.795Z,13.47
2024-05-09T06:06:34.356Z,13.41
2024-05-09T06:07:23.699Z,13.53
2024-05-09T06:08:13.376Z,13.60
2024-05-09T06:09:02.913Z,13.51
2024-05-09T06:09:52.546Z,13.47
2024-05-09T06:10:42.653Z,13.55
2024-05-09T06:11:32.531Z,13.60
2024-05-09T06:12:22.220Z,13.62
2024-05-09T06:13:12.733Z,13.54
2024-05-09T06:14:04.237Z,13.55
2024-05-09T06:14:53.785Z,13.46
2024-05-09T06:15:43.962Z,13.49
2024-05-09T06:16:33.820Z,13.59
2024-05-09T06:17:23.328Z,13.65
2024-05-09T06:18:13.272Z,13.72
2024-05-09T06:19:03.226Z,13.72
2024-05-09T06:19:53.337Z,13.77
2024-05-09T06:20:44.164Z,13.90
2024-05-09T06:21:34.001Z,13.72
2024-05-09T06:22:23.308Z,13.81
2024-05-09T06:23:13.391Z,13.95
2024-05-09T06:24:06.536Z,13.85
2024-05-09T06:24:56.212Z,13.90
2024-05-09T06:25:45.996Z,13.88
2024-05-09T06:26:35.583Z,13.93
2024-05-09T06:27:25.246Z,13.94
2024-05-09T06:28:14.638Z,13.93
2024-05-09T06:29:04.009Z,14.05
2024-05-09T06:29:53.173Z,14.32
2024-05-09T06:30:43.455Z,14.28
2024-05-09T06:31:39.795Z,14.15
2024-05-09T06:32:29.511Z,14.07
2024-05-09T06:33:19.488Z,14.24
2024-05-09T06:34:09.516Z,14.26
2024-05-09T06:34:59.220Z,14.52
2024-05-09T06:35:48.630Z,14.49
2024-05-09T06:36:38.284Z,14.63
2024-05-09T06:37:27.941Z,14.65
2024-05-09T06:38:17.586Z,14.59
2024-05-09T06:39:09.008Z,14.76
2024-05-09T06:39:58.407Z,14.78
2024-05-09T06:40:47.717Z,14.90
2024-05-09T06:41:37.042Z,15.20
2024-05-09T06:42:26.475Z,15.23
2024-05-09T06:43:18.561Z,15.33
2024-05-09T06:44:09.288Z,15.42
2024-05-09T06:44:58.958Z,15.59
2024-05-09T06:45:51.486Z,15.42
2024-05-09T06:46:41.283Z,15.37
2024-05-09T06:47:31.599Z,15.57
2024-05-09T06:48:22.053Z,15.67
2024-05-09T06:49:12.582Z,15.62
2024-05-09T06:50:02.208Z,15.38
2024-05-09T06:50:51.687Z,15.35
2024-05-09T06:51:41.366Z,15.38
2024-05-09T06:52:30.754Z,15.38
2024-05-09T06:53:22.348Z,15.36
2024-05-09T06:54:12.079Z,15.37
2024-05-09T06:55:01.827Z,15.48
2024-05-09T06:55:51.696Z,15.23
2024-05-09T06:56:41.211Z,15.01
2024-05-09T06:57:30.668Z,15.41
2024-05-09T06:58:20.421Z,15.50
2024-05-09T06:59:10.240Z,15.41
2024-05-09T06:59:59.835Z,15.42
2024-05-09T07:00:49.294Z,15.28
2024-05-09T07:01:38.980Z,15.73
2024-05-09T07:02:28.754Z,15.86
2024-05-09T07:03:19.488Z,15.77
2024-05-09T07:04:09.592Z,15.77
2024-05-09T07:04:59.555Z,15.87
2024-05-09T07:05:49.818Z,15.72
2024-05-09T07:06:39.335Z,15.62
2024-05-09T07:07:28.807Z,15.71
2024-05-09T07:08:18.932Z,15.77
2024-05-09T07:09:08.829Z,15.96
2024-05-09T07:09:58.498Z,15.86
2024-05-09T07:10:48.861Z,15.70
2024-05-09T07:11:38.620Z,15.68
2024-05-09T07:12:28.314Z,15.70
2024-05-09T07:13:18.106Z,15.68
2024-05-09T07:14:07.617Z,15.53
2024-05-09T07:14:57.142Z,15.63
2024-05-09T07:15:46.473Z,15.53
2024-05-09T07:16:36.021Z,15.53
2024-05-09T07:17:25.829Z,15.61
2024-05-09T07:18:17.160Z,15.42
2024-05-09T07:19:08.513Z,15.48
2024-05-09T07:19:58.951Z,15.23
2024-05-09T07:20:49.212Z,15.25
2024-05-09T07:21:39.699Z,15.24
2024-05-09T07:22:29.047Z,15.41
2024-05-09T07:23:19.053Z,15.32
2024-05-09T07:24:08.546Z,15.34
2024-05-09T07:24:58.240Z,15.27
2024-05-09T07:25:48.351Z,15.30
2024-05-09T07:26:37.978Z,15.26
2024-05-09T07:27:27.533Z,15.45
2024-05-09T07:28:20.047Z,15.32
2024-05-09T07:29:09.496Z,15.33
2024-05-09T07:29:59.147Z,15.41
2024-05-09T07:30:48.584Z,15.51
2024-05-09T07:31:38.172Z,15.59
2024-05-09T07:32:27.676Z,15.71
2024-05-09T07:33:19.783Z,15.67
2024-05-09T07:34:12.205Z,16.07
2024-05-09T07:35:01.865Z,16.20
2024-05-09T07:35:51.850Z,16.22
2024-05-09T07:36:41.751Z,16.06
2024-05-09T07:37:31.149Z,16.23
2024-05-09T07:38:20.589Z,16.47
2024-05-09T07:39:10.148Z,16.50
2024-05-09T07:39:59.564Z,16.52
2024-05-09T07:40:49.366Z,16.75
2024-05-09T07:41:38.623Z,16.65
2024-05-09T07:42:28.361Z,16.75
2024-05-09T07:43:18.133Z,16.88
2024-05-09T07:44:08.220Z,16.76
2024-05-09T07:45:11.215Z,16.60
2024-05-09T07:47:13.787Z,16.63
2024-05-09T07:48:29.021Z,16.59
2024-05-09T07:50:00.328Z,16.72
2024-05-09T07:53:29.784Z,17.11
2024-05-09T07:54:17.799Z,17.37
2024-05-09T07:55:07.470Z,16.95
2024-05-09T07:55:57.224Z,17.06
2024-05-09T07:56:47.323Z,17.31
2024-05-09T07:57:36.906Z,16.98
2024-05-09T07:58:26.784Z,17.09
2024-05-09T07:59:16.691Z,17.02
2024-05-09T08:00:06.807Z,17.12
2024-05-09T08:00:56.391Z,17.21
2024-05-09T08:01:46.334Z,17.16
2024-05-09T08:02:36.001Z,17.13
2024-05-09T08:03:25.337Z,17.16
2024-05-09T08:04:15.099Z,16.96
2024-05-09T08:05:04.844Z,17.06
2024-05-09T08:05:54.984Z,17.00
2024-05-09T08:06:44.759Z,16.95
2024-05-09T08:07:35.926Z,16.95
2024-05-09T08:08:25.393Z,16.96
2024-05-09T08:09:20.557Z,17.03
2024-05-09T08:10:15.234Z,16.83
2024-05-09T08:11:08.298Z,16.97
2024-05-09T08:11:58.177Z,17.06
2024-05-09T08:12:47.888Z,17.08
2024-05-09T08:13:37.144Z,17.05
2024-05-09T08:14:26.921Z,17.22
2024-05-09T08:15:16.555Z,17.18
2024-05-09T08:16:06.350Z,17.23
2024-05-09T08:16:55.961Z,17.09
2024-05-09T08:17:45.717Z,17.18
2024-05-09T08:18:35.839Z,17.08
2024-05-09T08:19:25.166Z,17.03
2024-05-09T08:20:22.861Z,16.99
2024-05-09T08:21:19.737Z,16.92
2024-05-09T08:22:09.454Z,17.02
2024-05-09T08:22:58.766Z,16.94
2024-05-09T08:23:48.428Z,17.13
2024-05-09T08:24:37.915Z,16.96
2024-05-09T08:25:27.515Z,16.98
2024-05-09T08:26:17.042Z,16.92
2024-05-09T08:27:06.554Z,16.83
2024-05-09T08:27:56.343Z,16.94
2024-05-09T08:28:45.682Z,16.82
2024-05-09T08:29:35.937Z,16.88
2024-05-09T08:30:32.778Z,16.86
2024-05-09T08:31:25.950Z,16.78
2024-05-09T08:32:15.784Z,16.69
2024-05-09T08:33:06.680Z,16.78
2024-05-09T08:33:57.154Z,16.71
2024-05-09T08:34:47.102Z,16.71
2024-05-09T08:35:36.627Z,16.74
2024-05-09T08:36:25.951Z,16.85
2024-05-09T08:37:21.494Z,16.90
2024-05-09T08:38:13.096Z,16.77
2024-05-09T08:39:02.373Z,16.90
2024-05-09T08:39:52.115Z,17.02
2024-05-09T08:40:41.702Z,17.15
2024-05-09T08:41:31.933Z,16.97
2024-05-09T08:42:22.508Z,16.73
2024-05-09T08:43:13.394Z,16.77
2024-05-09T08:44:02.893Z,16.89
2024-05-09T08:44:52.818Z,17.06
2024-05-09T08:45:43.863Z,17.12
2024-05-09T08:46:35.738Z,16.93
2024-05-09T08:47:27.731Z,17.01
2024-05-09T08:48:19.404Z,17.10
2024-05-09T08:49:09.424Z,17.07
2024-05-09T08:49:59.900Z,17.01
2024-05-09T08:50:51.766Z,17.11
2024-05-09T08:51:42.419Z,16.89
2024-05-09T08:52:31.695Z,16.90
2024-05-09T08:53:21.350Z,16.71
2024-05-09T08:54:10.953Z,16.57
2024-05-09T08:55:00.567Z,16.57
2024-05-09T08:55:50.430Z,16.72
2024-05-09T08:56:44.714Z,16.79
2024-05-09T08:57:35.445Z,16.82
2024-05-09T08:58:25.825Z,16.80
2024-05-09T08:59:18.820Z,16.77
2024-05-09T09:00:12.748Z,16.77
2024-05-09T09:01:04.720Z,16.93
2024-05-09T09:01:54.386Z,17.04
2024-05-09T09:02:44.135Z,17.13
2024-05-09T09:03:36.062Z,17.25
2024-05-09T09:04:27.010Z,17.26
2024-05-09T09:05:20.190Z,17.27
2024-05-09T09:06:13.388Z,17.20
2024-05-09T09:07:04.214Z,17.20
2024-05-09T09:07:53.805Z,16.74
2024-05-09T09:08:45.381Z,16.95
2024-05-09T09:09:42.324Z,17.09
2024-05-09T09:10:33.032Z,17.19
2024-05-09T09:11:22.847Z,17.21
2024-05-09T09:12:12.656Z,17.23
2024-05-09T09:13:03.227Z,17.12
2024-05-09T09:13:52.653Z,17.10
2024-05-09T09:14:42.497Z,17.14
2024-05-09T09:15:32.084Z,17.29
2024-05-09T09:16:32.703Z,17.33
2024-05-09T09:17:22.099Z,17.59
2024-05-09T09:18:14.219Z,17.35
2024-05-09T09:19:04.258Z,17.17
2024-05-09T09:19:54.175Z,17.24
2024-05-09T09:20:43.934Z,17.17
2024-05-09T09:21:36.374Z,17.28
2024-05-09T09:22:25.823Z,17.13
2024-05-09T09:23:15.605Z,17.30
2024-05-09T09:24:09.756Z,17.37
2024-05-09T09:24:59.994Z,17.59
2024-05-09T09:25:49.445Z,17.89
2024-05-09T09:26:38.789Z,17.68
2024-05-09T09:27:28.426Z,17.86
2024-05-09T09:28:21.862Z,18.10
2024-05-09T09:29:11.664Z,18.16
2024-05-09T09:30:01.184Z,18.23
2024-05-09T09:30:50.630Z,18.40
2024-05-09T09:31:40.994Z,18.46
2024-05-09T09:32:30.634Z,18.58
2024-05-09T09:33:20.424Z,18.60
2024-05-09T09:34:10.149Z,18.63
2024-05-09T09:34:59.556Z,18.65
2024-05-09T09:35:49.188Z,18.41
2024-05-09T09:36:41.662Z,18.44
2024-05-09T09:37:31.569Z,18.24
2024-05-09T09:38:22.460Z,18.02
2024-05-09T09:39:16.006Z,18.21
2024-05-09T09:40:08.966Z,18.40
2024-05-09T09:40:59.048Z,18.37
2024-05-09T09:41:48.524Z,18.50
2024-05-09T09:42:39.873Z,18.47
2024-05-09T09:43:30.826Z,18.53
2024-05-09T09:44:21.156Z,18.51
2024-05-09T09:45:12.051Z,18.05
2024-05-09T09:46:02.021Z,18.05
2024-05-09T09:47:10.326Z,18.08
2024-05-09T09:48:01.051Z,17.92
2024-05-09T09:48:50.853Z,17.86
2024-05-09T09:49:42.330Z,17.65
2024-05-09T09:50:35.094Z,17.93
2024-05-09T09:51:25.488Z,17.76
2024-05-09T09:52:15.478Z,17.87
2024-05-09T09:53:06.251Z,17.72
2024-05-09T09:53:56.678Z,17.66
2024-05-09T09:54:47.485Z,17.85
2024-05-09T09:55:38.871Z,17.79
2024-05-09T09:56:29.981Z,17.64
2024-05-09T09:57:20.617Z,17.78
2024-05-09T09:58:13.936Z,17.89
2024-05-09T09:59:04.939Z,18.22
2024-05-09T09:59:54.628Z,18.69
2024-05-09T10:00:44.870Z,19.01
2024-05-09T10:01:35.306Z,19.34
2024-05-09T10:02:24.970Z,19.69
2024-05-09T10:03:14.505Z,19.96
2024-05-09T10:04:05.016Z,19.46
2024-05-09T10:04:54.905Z,19.28
2024-05-09T10:05:47.061Z,19.62
2024-05-09T10:06:41.628Z,19.89
2024-05-09T10:07:31.519Z,19.70
2024-05-09T10:08:22.285Z,19.93
2024-05-09T10:09:15.672Z,20.10
2024-05-09T10:10:07.016Z,20.24
2024-05-09T10:10:56.845Z,19.86
2024-05-09T10:11:51.812Z,20.00
2024-05-09T10:12:55.504Z,19.86
2024-05-09T10:13:45.194Z,19.49
2024-05-09T10:14:45.523Z,19.58
2024-05-09T10:15:50.729Z,19.76
2024-05-09T10:16:43.089Z,19.55
2024-05-09T10:17:32.790Z,19.80
2024-05-09T10:18:29.334Z,19.56
2024-05-09T10:19:25.736Z,19.66
2024-05-09T10:20:21.805Z,19.52
2024-05-09T10:21:16.311Z,19.71
2024-05-09T10:22:07.725Z,19.95
2024-05-09T10:22:56.838Z,19.53
2024-05-09T10:24:01.057Z,19.31
2024-05-09T10:24:52.653Z,19.09
2024-05-09T10:25:42.048Z,19.07
2024-05-09T10:26:33.702Z,19.27
2024-05-09T10:27:26.813Z,19.54
2024-05-09T10:28:16.518Z,19.58
2024-05-09T10:29:16.566Z,19.63
2024-05-09T10:30:11.553Z,19.49
2024-05-09T10:31:08.319Z,19.68
2024-05-09T10:31:58.881Z,19.90
2024-05-09T10:32:52.391Z,19.93
2024-05-09T10:33:49.674Z,20.19
2024-05-09T10:34:40.174Z,19.86
2024-05-09T10:35:31.076Z,20.11
2024-05-09T10:36:28.039Z,20.31
2024-05-09T10:37:17.949Z,20.40
2024-05-09T10:38:07.695Z,20.08
2024-05-09T10:38:58.604Z,20.34
2024-05-09T10:39:48.540Z,20.11
2024-05-09T10:40:38.964Z,20.28
2024-05-09T10:41:28.292Z,20.19
2024-05-09T10:42:18.666Z,19.80
2024-05-09T10:43:08.889Z,19.80
2024-05-09T10:43:58.414Z,19.38
2024-05-09T10:44:47.958Z,19.48
2024-05-09T10:45:37.306Z,19.62
2024-05-09T10:46:26.647Z,19.19
2024-05-09T10:47:16.904Z,19.17
2024-05-09T10:48:07.683Z,19.43
2024-05-09T10:48:57.337Z,19.48
2024-05-09T10:49:48.461Z,19.65
2024-05-09T10:50:42.487Z,19.72
2024-05-09T10:51:32.305Z,19.69
2024-05-09T10:52:23.138Z,19.86
2024-05-09T10:53:12.547Z,20.04
2024-05-09T10:54:02.242Z,20.20
2024-05-09T10:54:53.205Z,20.18
2024-05-09T10:55:42.690Z,20.55
2024-05-09T10:56:32.081Z,20.60